Time;durP1;ratioP1;P1;durP2;ratioP2;P2;SDS_P1;SDS_P2;PMS_P1;PMS_P2;Temp;Humidity;BMP_temperature;BMP_pressure;BME280_temperature;BME280_humidity;BME280_pressure;Samples;Min_cycle;Max_cycle;Signal;HPM_P1;HPM_P2
2022/11/12 00:00:45;;;;;;;24.23;22.25;;;;;;;2.61;100.00;103095.19;5256938;28;20036;-88
2022/11/12 00:03:16;;;;;;;21.90;20.10;;;;;;;2.91;100.00;103134.03;5265587;28;20021;-87
2022/11/12 00:05:48;;;;;;;23.90;21.88;;;;;;;2.88;100.00;103150.38;5265359;28;20032;-86
2022/11/12 00:08:18;;;;;;;21.65;19.90;;;;;;;2.04;100.00;103001.16;5265979;28;20025;-87
2022/11/12 00:10:49;;;;;;;20.52;18.38;;;;;;;1.95;100.00;102994.09;5245893;28;20032;-86
2022/11/12 00:13:19;;;;;;;19.90;18.25;;;;;;;1.87;100.00;102968.16;5265224;28;20055;-87
2022/11/12 00:15:50;;;;;;;20.40;18.77;;;;;;;1.93;100.00;102980.06;5256177;28;20476;-87
2022/11/12 00:18:20;;;;;;;20.88;19.20;;;;;;;2.24;100.00;103044.59;5238386;28;20225;-87
2022/11/12 00:20:51;;;;;;;20.17;18.33;;;;;;;2.21;100.00;103051.06;5256093;28;20103;-87
2022/11/12 00:23:21;;;;;;;22.40;19.38;;;;;;;2.11;100.00;103044.06;5256175;28;20101;-87
2022/11/12 00:26:01;;;;;;;20.17;18.55;;;;;;;2.33;100.00;103070.34;5255031;28;20021;-87
2022/11/12 00:28:31;;;;;;;20.75;19.25;;;;;;;1.93;100.00;103002.22;5256494;28;20031;-87
2022/11/12 00:31:07;;;;;;;22.55;20.70;;;;;;;2.51;100.00;103103.25;5256176;28;20024;-87
2022/11/12 00:33:41;;;;;;;20.73;19.13;;;;;;;2.45;100.00;103095.84;5255568;28;20024;-87
2022/11/12 00:36:12;;;;;;;20.25;18.55;;;;;;;2.55;100.00;103143.81;5256078;28;20035;-87
2022/11/12 00:38:42;;;;;;;19.25;17.77;;;;;;;1.99;100.00;103052.28;5239389;28;20028;-88
2022/11/12 00:41:13;;;;;;;21.40;19.85;;;;;;;2.16;100.00;103087.97;5256777;28;20406;-87
2022/11/12 00:43:43;;;;;;;19.10;17.70;;;;;;;1.95;100.00;103053.53;5238504;28;20035;-88
2022/11/12 00:46:13;;;;;;;21.05;19.38;;;;;;;2.14;100.00;103065.09;5238636;28;20070;-87
2022/11/12 00:48:44;;;;;;;20.52;18.80;;;;;;;2.10;100.00;103061.03;5257109;28;20028;-87
2022/11/12 00:51:14;;;;;;;20.60;19.23;;;;;;;2.51;100.00;103108.59;5237695;28;20028;-87
2022/11/12 00:53:48;;;;;;;29.58;18.40;;;;;;;2.14;100.00;103033.13;5237798;28;20427;-87
2022/11/12 00:56:19;;;;;;;19.30;17.90;;;;;;;2.83;100.00;103152.66;5237766;28;20027;-87
2022/11/12 00:58:49;;;;;;;18.10;16.55;;;;;;;2.00;100.00;103010.47;5256322;28;20041;-87
2022/11/12 01:01:20;;;;;;;20.10;18.50;;;;;;;2.03;100.00;103005.66;5255655;28;20501;-87
2022/11/12 01:03:50;;;;;;;17.33;16.13;;;;;;;2.82;100.00;103129.63;5237726;28;20036;-88
2022/11/12 01:06:22;;;;;;;21.08;19.30;;;;;;;2.15;100.00;103026.81;5255224;28;20016;-88
2022/11/12 01:08:54;;;;;;;17.52;16.27;;;;;;;2.75;100.00;103126.72;5255945;28;20146;-88
2022/11/12 01:11:27;;;;;;;16.88;15.57;;;;;;;2.72;100.00;103127.00;5255407;28;20055;-87
2022/11/12 01:14:04;;;;;;;19.48;17.65;;;;;;;2.70;100.00;103121.81;5237069;28;20020;-89
2022/11/12 01:16:37;;;;;;;18.52;16.95;;;;;;;2.20;100.00;103033.38;5219215;28;20025;-85
2022/11/12 01:19:10;;;;;;;17.58;16.38;;;;;;;2.30;100.00;103049.34;5216538;28;20394;-88
2022/11/12 01:21:42;;;;;;;19.65;17.88;;;;;;;2.17;100.00;103033.66;5234287;28;20029;-88
2022/11/12 01:24:13;;;;;;;18.35;16.95;;;;;;;2.59;100.00;103098.03;5233116;28;20021;-86
2022/11/12 01:26:43;;;;;;;17.92;16.35;;;;;;;2.06;100.00;103003.69;5216245;28;20025;-87
2022/11/12 01:29:13;;;;;;;18.77;16.85;;;;;;;2.43;100.00;103060.47;5233733;28;20395;-87
2022/11/12 01:31:44;;;;;;;18.23;16.58;;;;;;;2.76;100.00;103130.22;5233288;28;20079;-87
2022/11/12 01:34:14;;;;;;;18.52;17.05;;;;;;;2.22;100.00;103047.41;5215085;28;20025;-88
2022/11/12 01:36:44;;;;;;;17.90;16.58;;;;;;;2.24;100.00;103049.91;5233369;28;20063;-88
2022/11/12 01:39:15;;;;;;;21.52;19.73;;;;;;;1.98;100.00;103002.63;5216499;28;20029;-86
2022/11/12 01:41:45;;;;;;;16.92;15.38;;;;;;;1.99;100.00;103014.13;5215625;28;20029;-87
2022/11/12 01:47:06;;;;;;;19.15;17.65;;;;;;;2.61;100.00;103104.03;5213091;28;20057;-82
2022/11/12 01:50:00;;;;;;;16.73;15.15;;;;;;;2.50;100.00;103098.06;5217020;28;20053;-81
2022/11/12 01:52:36;;;;;;;16.05;14.82;;;;;;;2.53;100.00;103103.09;5200064;28;20026;-81
2022/11/12 01:55:12;;;;;;;15.82;14.63;;;;;;;2.52;100.00;103099.59;5222159;28;20056;-81
2022/11/12 01:57:50;;;;;;;16.42;15.20;;;;;;;2.49;100.00;103094.56;5217878;28;20470;-81
2022/11/12 02:00:20;;;;;;;16.88;15.65;;;;;;;2.40;100.00;103086.59;5235427;28;20343;-82
2022/11/12 02:02:56;;;;;;;19.65;18.02;;;;;;;2.55;100.00;103117.97;5239368;28;20025;-82
2022/11/12 02:05:30;;;;;;;17.42;16.23;;;;;;;2.48;100.00;103106.22;5240411;28;20032;-81
2022/11/12 02:08:01;;;;;;;14.98;13.98;;;;;;;2.26;100.00;103062.13;5240636;28;20021;-82
2022/11/12 02:10:33;;;;;;;15.38;14.30;;;;;;;2.53;100.00;103103.94;5240750;28;20214;-82
2022/11/12 02:15:54;;;;;;;19.17;17.52;;;;;;;2.50;100.00;103104.25;5241010;28;20036;-81
2022/11/12 02:18:25;;;;;;;18.40;16.75;;;;;;;2.50;100.00;103108.72;5240451;28;20024;-84
2022/11/12 02:20:58;;;;;;;15.23;14.32;;;;;;;2.41;100.00;103094.44;5221667;28;20443;-83
2022/11/12 02:23:28;;;;;;;15.70;14.70;;;;;;;2.35;100.00;103084.38;5235000;28;20029;-83
2022/11/12 02:26:00;;;;;;;15.98;14.63;;;;;;;2.25;100.00;103067.59;5233752;28;20016;-83
2022/11/12 02:28:31;;;;;;;16.55;15.43;;;;;;;2.43;100.00;103095.13;5215262;28;20029;-82
2022/11/12 02:31:02;;;;;;;17.17;15.88;;;;;;;2.08;100.00;103039.03;5233520;28;20159;-82
2022/11/12 02:33:32;;;;;;;18.52;16.92;;;;;;;2.07;100.00;103038.19;5233715;28;20107;-82
2022/11/12 02:36:03;;;;;;;18.35;16.83;;;;;;;1.71;100.00;102985.78;5232735;28;20032;-83
2022/11/12 02:38:33;;;;;;;17.65;16.25;;;;;;;2.05;100.00;103048.16;5233144;28;20029;-84
2022/11/12 02:41:04;;;;;;;17.80;16.65;;;;;;;2.46;100.00;103110.00;5214977;28;20039;-81
2022/11/12 02:43:34;;;;;;;18.40;16.92;;;;;;;1.77;100.00;102993.16;5232913;28;20055;-82
2022/11/12 02:46:05;;;;;;;17.75;16.38;;;;;;;1.73;100.00;103000.63;5232855;28;20029;-82
2022/11/12 02:48:35;;;;;;;17.55;16.15;;;;;;;1.56;100.00;102961.41;5214409;28;20025;-83
2022/11/12 02:51:06;;;;;;;16.40;15.15;;;;;;;2.37;100.00;103099.22;5214391;28;20097;-82
2022/11/12 02:53:37;;;;;;;18.50;17.00;;;;;;;2.40;100.00;103111.44;5215285;28;20020;-82
2022/11/12 02:56:07;;;;;;;15.07;13.88;;;;;;;2.47;100.00;103101.88;5232608;28;20032;-81
2022/11/12 02:58:37;;;;;;;17.38;16.08;;;;;;;2.45;100.00;103100.34;5214945;28;20041;-80
2022/11/12 03:01:08;;;;;;;17.88;16.35;;;;;;;2.34;100.00;103120.84;5214452;28;20025;-82
2022/11/12 03:03:38;;;;;;;14.35;13.25;;;;;;;2.21;100.00;103085.69;5232109;28;20032;-83
2022/11/12 03:06:08;;;;;;;19.52;18.08;;;;;;;1.76;100.00;103015.44;5214455;28;20071;-81
2022/11/12 03:08:39;;;;;;;18.85;17.17;;;;;;;2.09;100.00;103043.38;5232228;28;20483;-82
2022/11/12 03:11:12;;;;;;;15.95;14.77;;;;;;;2.27;100.00;103081.63;5214186;28;20035;-82
2022/11/12 03:13:42;;;;;;;16.65;15.18;;;;;;;2.45;100.00;103103.84;5212934;28;20033;-82
2022/11/12 03:16:13;;;;;;;18.10;16.70;;;;;;;2.47;100.00;103104.53;5232388;28;20046;-82
2022/11/12 03:18:43;;;;;;;16.30;15.35;;;;;;;2.59;100.00;103108.69;5214784;28;20573;-82
2022/11/12 03:21:13;;;;;;;19.63;17.90;;;;;;;2.10;100.00;103037.06;5231567;28;20037;-82
2022/11/12 03:23:44;;;;;;;17.08;15.73;;;;;;;2.25;100.00;103083.59;5212669;28;20025;-85
2022/11/12 03:26:14;;;;;;;17.15;16.10;;;;;;;1.78;100.00;103029.47;5231130;28;20036;-81
2022/11/12 03:28:45;;;;;;;19.92;17.70;;;;;;;2.05;100.00;103072.13;5213217;28;20108;-84
2022/11/12 03:31:15;;;;;;;17.52;16.33;;;;;;;1.82;100.00;103045.03;5231329;28;20021;-83
2022/11/12 03:33:45;;;;;;;17.23;15.93;;;;;;;2.03;100.00;103074.09;5230383;28;20032;-81
2022/11/12 03:36:16;;;;;;;17.05;15.52;;;;;;;1.65;100.00;103013.81;5230416;28;20434;-81
2022/11/12 03:38:46;;;;;;;18.75;17.05;;;;;;;2.12;100.00;103102.56;5230818;28;20024;-84
2022/11/12 03:41:17;;;;;;;19.45;17.75;;;;;;;1.85;100.00;103054.53;5212409;28;20029;-81
2022/11/12 03:43:47;;;;;;;17.05;15.80;;;;;;;1.69;100.00;103028.53;5230263;28;20509;-84
2022/11/12 03:46:17;;;;;;;18.80;17.40;;;;;;;1.58;100.00;103008.22;5230624;28;20104;-84
2022/11/12 03:48:48;;;;;;;20.17;18.45;;;;;;;1.76;100.00;103039.41;5212853;28;20040;-83
2022/11/12 03:51:20;;;;;;;17.45;16.23;;;;;;;1.99;100.00;103072.75;5231279;28;20032;-83
2022/11/12 03:53:50;;;;;;;15.32;14.35;;;;;;;1.91;100.00;103068.13;5230566;28;20029;-82
2022/11/12 03:56:20;;;;;;;17.40;15.95;;;;;;;1.84;100.00;103063.53;5231773;28;20108;-82
2022/11/12 03:58:51;;;;;;;17.00;15.82;;;;;;;2.08;100.00;103077.19;5213897;28;20024;-81
2022/11/12 04:01:21;;;;;;;18.40;17.02;;;;;;;2.01;100.00;103074.28;5231198;28;20053;-83
2022/11/12 04:03:51;;;;;;;15.98;14.73;;;;;;;2.02;100.00;103065.28;5231009;28;20124;-82
2022/11/12 04:09:11;;;;;;;18.10;16.42;;;;;;;1.93;100.00;103066.16;5231702;28;20032;-82
2022/11/12 04:11:42;;;;;;;17.90;15.80;;;;;;;2.13;100.00;103090.06;5231736;28;20021;-82
2022/11/12 04:14:12;;;;;;;16.63;15.43;;;;;;;2.01;100.00;103076.09;5230650;28;20025;-85
2022/11/12 04:22:20;;;;;;;14.95;13.77;;;;;;;1.88;100.00;103054.25;5231277;28;20047;-83
2022/11/12 04:27:41;;;;;;;15.18;13.80;;;;;;;2.09;100.00;103070.03;5211108;28;20033;-82
2022/11/12 04:30:14;;;;;;;16.50;15.32;;;;;;;1.84;100.00;103029.72;5210404;28;20025;-81
2022/11/12 04:32:53;;;;;;;20.63;18.98;;;;;;;1.96;100.00;103047.22;5207687;28;20022;-81
2022/11/12 04:35:25;;;;;;;17.63;16.05;;;;;;;1.93;100.00;103036.84;5208931;28;20053;-83
2022/11/12 04:37:56;;;;;;;16.65;14.80;;;;;;;1.98;100.00;103044.41;5209396;28;20029;-83
2022/11/12 04:46:19;;;;;;;16.63;15.45;;;;;;;1.96;100.00;103036.56;5175041;28;20406;-80
2022/11/12 04:48:50;;;;;;;17.30;16.08;;;;;;;2.03;100.00;103045.63;5207750;28;20021;-82
2022/11/12 04:54:09;;;;;;;16.95;15.75;;;;;;;2.03;100.00;103053.63;5208559;28;20106;-81
2022/11/12 04:56:40;;;;;;;17.88;16.27;;;;;;;2.25;100.00;103071.09;5208508;28;20021;-81
2022/11/12 04:59:10;;;;;;;16.27;15.00;;;;;;;2.20;100.00;103051.19;5209593;28;20030;-81
2022/11/12 05:01:40;;;;;;;16.05;14.90;;;;;;;2.35;100.00;103066.53;5212583;28;20021;-82
2022/11/12 05:04:11;;;;;;;16.73;15.52;;;;;;;2.34;100.00;103056.03;5212779;28;20032;-83
2022/11/12 05:06:50;;;;;;;17.92;16.58;;;;;;;2.40;100.00;103066.09;5214496;28;20028;-82
2022/11/12 05:09:24;;;;;;;16.10;14.90;;;;;;;2.30;100.00;103054.66;5214686;28;20025;-82
2022/11/12 05:11:55;;;;;;;17.75;16.25;;;;;;;2.14;100.00;103038.44;5212822;28;20037;-82
2022/11/12 05:14:26;;;;;;;16.15;14.95;;;;;;;2.15;100.00;103058.78;5212679;28;20133;-82
2022/11/12 05:16:56;;;;;;;16.85;15.50;;;;;;;1.99;100.00;103038.94;5214500;28;20029;-82
2022/11/12 05:19:27;;;;;;;20.02;18.42;;;;;;;1.99;100.00;103073.59;5214421;28;20036;-83
2022/11/12 05:22:07;;;;;;;17.58;16.23;;;;;;;1.29;100.00;102970.19;5213267;28;20025;-82
2022/11/12 05:24:40;;;;;;;16.88;15.38;;;;;;;1.44;100.00;102989.22;5214189;28;20033;-81
2022/11/12 05:27:12;;;;;;;16.65;15.35;;;;;;;1.95;100.00;103066.03;5213729;28;20439;-83
2022/11/12 05:29:42;;;;;;;14.65;13.65;;;;;;;1.89;100.00;103066.59;5214323;28;20088;-84
2022/11/12 05:32:14;;;;;;;18.02;16.65;;;;;;;1.88;100.00;103068.41;5196356;28;20017;-82
2022/11/12 05:34:45;;;;;;;16.67;15.10;;;;;;;1.77;100.00;103049.94;5213910;28;20041;-83
2022/11/12 05:37:15;;;;;;;18.60;17.13;;;;;;;1.26;100.00;102973.97;5214165;28;20022;-81
2022/11/12 05:39:46;;;;;;;17.35;15.95;;;;;;;1.87;100.00;103053.41;5195608;28;20051;-82
2022/11/12 05:42:16;;;;;;;14.38;13.25;;;;;;;1.73;100.00;103034.41;5214408;28;20395;-81
2022/11/12 05:44:46;;;;;;;17.33;16.20;;;;;;;1.86;100.00;103070.38;5214937;28;20036;-82
2022/11/12 05:47:17;;;;;;;15.55;14.50;;;;;;;1.71;100.00;103034.56;5216202;28;20017;-81
2022/11/12 05:49:47;;;;;;;15.00;13.98;;;;;;;1.31;100.00;102963.75;5218392;28;20021;-84
2022/11/12 05:52:17;;;;;;;15.32;14.23;;;;;;;1.87;100.00;103052.59;5223950;28;20021;-82
2022/11/12 05:54:48;;;;;;;16.92;15.15;;;;;;;1.86;100.00;103059.72;5232467;28;20084;-83
2022/11/12 05:57:18;;;;;;;16.73;15.43;;;;;;;0.90;100.00;102903.72;5242484;28;20063;-84
2022/11/12 05:59:49;;;;;;;19.90;18.30;;;;;;;1.17;100.00;102961.50;5235129;28;20031;-83
2022/11/12 06:02:19;;;;;;;18.88;17.38;;;;;;;1.45;100.00;103014.81;5217487;28;20025;-83
2022/11/12 06:04:49;;;;;;;16.70;15.27;;;;;;;1.69;100.00;103045.34;5234628;28;20047;-82
2022/11/12 06:07:20;;;;;;;15.30;14.10;;;;;;;1.84;100.00;103064.38;5216350;28;20016;-82
2022/11/12 06:09:50;;;;;;;14.38;13.38;;;;;;;1.78;100.00;103050.78;5234802;28;20051;-83
2022/11/12 06:12:20;;;;;;;16.00;14.90;;;;;;;1.86;100.00;103065.06;5234319;28;20044;-82
2022/11/12 06:14:51;;;;;;;17.95;16.35;;;;;;;1.56;100.00;103015.50;5232007;28;20401;-83
2022/11/12 06:17:21;;;;;;;17.27;15.73;;;;;;;1.77;100.00;103054.41;5214743;28;20417;-83
2022/11/12 06:19:51;;;;;;;15.57;14.45;;;;;;;1.10;100.00;102949.78;5214805;28;20476;-85
2022/11/12 06:22:22;;;;;;;16.02;14.65;;;;;;;1.46;100.00;103017.34;5216172;28;20029;-83
2022/11/12 06:24:52;;;;;;;17.00;15.60;;;;;;;1.46;100.00;103020.00;5214707;28;20037;-80
2022/11/12 06:27:23;;;;;;;16.88;15.45;;;;;;;1.76;100.00;103061.56;5233587;28;20102;-80
2022/11/12 06:29:53;;;;;;;19.08;15.65;;;;;;;1.35;100.00;102988.25;5215168;28;20113;-81
2022/11/12 06:32:23;;;;;;;16.92;15.45;;;;;;;1.69;100.00;103058.66;5216421;28;20043;-84
2022/11/12 06:34:54;;;;;;;17.67;16.42;;;;;;;1.63;100.00;103045.06;5216418;28;20025;-84
2022/11/12 06:37:24;;;;;;;17.83;16.50;;;;;;;1.68;100.00;103054.31;5216217;28;20120;-83
2022/11/12 06:39:55;;;;;;;16.95;15.75;;;;;;;1.08;100.00;102958.88;5234079;28;20054;-83
2022/11/12 06:42:25;;;;;;;19.20;17.85;;;;;;;1.04;100.00;102966.31;5236184;28;20025;-82
2022/11/12 06:44:55;;;;;;;18.50;17.13;;;;;;;1.56;100.00;103046.63;5236657;28;20044;-82
2022/11/12 06:47:26;;;;;;;16.45;15.25;;;;;;;1.51;100.00;103043.56;5237439;28;20054;-81
2022/11/12 06:49:56;;;;;;;16.88;15.35;;;;;;;1.64;100.00;103050.25;5236470;28;20390;-83
2022/11/12 06:52:27;;;;;;;18.77;17.27;;;;;;;1.64;100.00;103055.59;5235228;28;20029;-81
2022/11/12 06:54:57;;;;;;;20.90;19.30;;;;;;;1.60;100.00;103034.72;5216608;28;20455;-80
2022/11/12 06:57:28;;;;;;;21.92;20.08;;;;;;;1.47;100.00;103007.53;5232159;28;20025;-80
2022/11/12 06:59:58;;;;;;;17.95;16.50;;;;;;;1.18;100.00;102965.00;5232453;28;20029;-83
2022/11/12 07:02:28;;;;;;;24.33;22.02;;;;;;;1.63;100.00;103051.25;5215192;28;20043;-80
2022/11/12 07:04:59;;;;;;;23.00;21.05;;;;;;;1.63;100.00;103045.91;5230928;28;20122;-80
2022/11/12 07:07:29;;;;;;;22.20;20.45;;;;;;;1.77;100.00;103070.41;5214382;28;20017;-80
2022/11/12 07:09:59;;;;;;;23.48;21.50;;;;;;;1.29;100.00;103004.78;5231669;28;20017;-81
2022/11/12 07:12:30;;;;;;;24.00;22.08;;;;;;;1.53;100.00;103046.91;5233381;28;20040;-82
2022/11/12 07:15:00;;;;;;;21.73;20.02;;;;;;;1.63;100.00;103063.72;5232522;28;20029;-79
2022/11/12 07:17:31;;;;;;;23.27;21.30;;;;;;;1.24;100.00;102989.22;5232182;28;20158;-81
2022/11/12 07:20:02;;;;;;;23.00;21.30;;;;;;;1.87;100.00;103081.88;5213929;28;20043;-81
2022/11/12 07:22:33;;;;;;;25.73;23.08;;;;;;;1.81;100.00;103058.47;5232167;28;20024;-80
2022/11/12 07:25:04;;;;;;;22.40;20.67;;;;;;;1.41;100.00;102997.50;5231008;28;20052;-80
2022/11/12 07:27:34;;;;;;;23.67;21.90;;;;;;;1.94;100.00;103091.81;5213456;28;20032;-81
2022/11/12 07:30:05;;;;;;;25.17;23.05;;;;;;;1.67;100.00;103070.44;5213969;28;20031;-81
2022/11/12 07:32:36;;;;;;;24.17;22.45;;;;;;;1.96;100.00;103103.19;5214569;28;20075;-78
2022/11/12 07:35:06;;;;;;;22.85;21.05;;;;;;;1.97;100.00;103096.88;5214047;28;20082;-80
2022/11/12 07:37:37;;;;;;;23.50;21.23;;;;;;;1.63;100.00;103039.75;5214451;28;20463;-82
2022/11/12 07:40:07;;;;;;;21.48;19.77;;;;;;;2.03;100.00;103096.25;5232189;28;20032;-81
2022/11/12 07:42:38;;;;;;;23.70;21.92;;;;;;;2.13;100.00;103106.06;5232483;28;20024;-81
2022/11/12 07:47:41;;;;;;;23.45;21.52;;;;;;;2.17;100.00;103107.47;5182903;28;20104;-68
2022/11/12 07:50:11;;;;;;;22.27;20.02;;;;;;;2.26;100.00;103109.25;5183321;28;20022;-68
2022/11/12 07:52:42;;;;;;;24.42;22.13;;;;;;;2.20;100.00;103101.84;5166988;28;20056;-68
2022/11/12 07:55:12;;;;;;;25.15;23.15;;;;;;;2.35;100.00;103103.88;5166811;28;20029;-68
2022/11/12 07:57:43;;;;;;;24.45;22.33;;;;;;;2.35;100.00;103095.03;5183058;28;20033;-67
2022/11/12 08:00:14;;;;;;;28.25;25.65;;;;;;;2.62;100.00;103119.03;5166919;28;20289;-68
2022/11/12 08:02:45;;;;;;;23.65;21.60;;;;;;;2.70;100.00;103115.63;5166926;28;20126;-68
2022/11/12 08:05:15;;;;;;;24.50;22.30;;;;;;;2.73;100.00;103104.66;5183725;28;20576;-68
2022/11/12 08:07:46;;;;;;;25.35;22.70;;;;;;;2.77;100.00;103103.38;5167092;28;20029;-68
2022/11/12 08:10:16;;;;;;;21.08;19.25;;;;;;;2.91;100.00;103112.69;5183219;28;20076;-66
2022/11/12 08:12:46;;;;;;;23.02;21.42;;;;;;;3.00;100.00;103112.66;5166994;28;20026;-68
2022/11/12 08:15:17;;;;;;;25.25;23.15;;;;;;;3.15;100.00;103118.31;5166817;28;20610;-68
2022/11/12 08:17:47;;;;;;;24.13;21.83;;;;;;;3.28;100.00;103115.25;5166768;28;20079;-68
2022/11/12 08:20:18;;;;;;;24.50;22.33;;;;;;;3.37;100.00;103117.00;5183082;28;20131;-68
2022/11/12 08:22:48;;;;;;;25.60;22.52;;;;;;;3.35;100.00;103106.47;5166818;28;20175;-68
2022/11/12 08:25:19;;;;;;;26.60;23.92;;;;;;;3.56;100.00;103116.00;5166449;28;20022;-68
2022/11/12 08:27:55;;;;;;;24.08;22.20;;;;;;;3.65;100.00;103123.94;5184347;28;20022;-68
2022/11/12 08:30:26;;;;;;;23.15;21.23;;;;;;;3.75;100.00;103123.84;5166509;28;20022;-68
2022/11/12 08:33:02;;;;;;;22.65;20.95;;;;;;;3.84;100.00;103122.06;5166646;28;20041;-68
2022/11/12 08:35:32;;;;;;;22.85;20.95;;;;;;;3.90;100.00;103095.53;5168552;28;20029;-68
2022/11/12 08:38:06;;;;;;;24.45;22.02;;;;;;;4.21;100.00;103127.16;5170717;28;20037;-68
2022/11/12 08:40:37;;;;;;;22.75;20.40;;;;;;;4.29;100.00;103117.34;5169650;28;20041;-68
2022/11/12 08:43:09;;;;;;;23.50;21.48;;;;;;;4.39;100.00;103118.03;5170679;28;20029;-67
2022/11/12 08:45:40;;;;;;;23.35;21.42;;;;;;;4.48;100.00;103124.28;5186359;28;20120;-67
2022/11/12 08:48:15;;;;;;;18.73;17.60;;;;;;;4.64;100.00;103121.66;5170687;28;20541;-67
2022/11/12 08:50:45;;;;;;;18.10;16.65;;;;;;;4.74;100.00;103121.53;5170221;28;20030;-67
2022/11/12 08:53:16;;;;;;;19.67;18.15;;;;;;;4.84;100.00;103116.88;5170393;28;20025;-67
2022/11/12 08:55:46;;;;;;;16.75;15.52;;;;;;;4.98;100.00;103115.41;5186476;28;20038;-68
2022/11/12 08:58:17;;;;;;;14.32;13.32;;;;;;;5.08;100.00;103114.25;5170140;28;20409;-65
2022/11/12 09:00:49;;;;;;;18.05;16.70;;;;;;;5.18;100.00;103124.84;5169707;28;20071;-66
2022/11/12 09:03:22;;;;;;;17.58;16.05;;;;;;;5.29;100.00;103127.19;5186488;28;20041;-66
2022/11/12 09:05:53;;;;;;;16.02;14.63;;;;;;;5.42;100.00;103118.66;5170282;28;20091;-66
2022/11/12 09:08:24;;;;;;;15.90;14.63;;;;;;;5.57;100.00;103121.50;5169977;28;20026;-66
2022/11/12 09:10:56;;;;;;;17.75;16.27;;;;;;;5.69;100.00;103129.06;5170163;28;20025;-66
2022/11/12 09:13:27;;;;;;;15.60;14.25;;;;;;;5.79;100.00;103123.50;5187226;28;20064;-66
2022/11/12 09:16:03;;;;;;;14.82;13.57;;;;;;;5.90;100.00;103123.19;5185654;28;20053;-66
2022/11/12 09:18:34;;;;;;;16.35;14.98;;;;;;;6.00;100.00;103131.06;5169905;28;20033;-66
2022/11/12 09:21:08;;;;;;;16.85;15.35;;;;;;;6.10;100.00;103126.34;5169555;28;20025;-66
2022/11/12 09:23:39;;;;;;;13.93;12.90;;;;;;;6.23;100.00;103120.44;5169716;28;20030;-66
2022/11/12 09:26:10;;;;;;;18.38;16.60;;;;;;;6.38;100.00;103118.72;5169676;28;20030;-66
2022/11/12 09:28:40;;;;;;;16.10;14.63;;;;;;;6.47;100.00;103112.31;5169691;28;20409;-65
2022/11/12 09:31:11;;;;;;;14.23;13.13;;;;;;;6.57;100.00;103112.94;5185879;28;20029;-66
2022/11/12 09:33:41;;;;;;;14.50;13.07;;;;;;;6.69;100.00;103110.69;5168895;28;20436;-65
2022/11/12 09:36:11;;;;;;;15.40;14.18;;;;;;;6.85;100.00;103109.78;5169515;28;20046;-65
2022/11/12 09:38:42;;;;;;;14.23;12.75;;;;;;;6.96;100.00;103106.69;5169334;28;20040;-66
2022/11/12 09:41:27;;;;;;;14.13;12.80;;;;;;;7.06;100.00;103112.69;5169013;28;20021;-66
2022/11/12 09:44:05;;;;;;;14.05;12.90;;;;;;;7.17;100.00;103106.06;5168973;28;20029;-66
2022/11/12 09:46:51;;;;;;;13.65;12.25;;;;;;;7.31;100.00;103107.97;5186654;28;20394;-66
2022/11/12 09:49:32;;;;;;;10.25;9.57;;;;;;;7.42;100.00;103112.94;5186958;28;20108;-67
2022/11/12 09:52:05;;;;;;;14.02;12.93;;;;;;;7.53;100.00;103117.03;5186854;28;20034;-66
2022/11/12 09:54:36;;;;;;;13.93;12.73;;;;;;;7.63;100.00;103114.94;5168922;28;20493;-66
2022/11/12 09:57:11;;;;;;;12.05;11.13;;;;;;;7.69;100.00;103111.53;5169200;28;20022;-66
2022/11/12 09:59:42;;;;;;;11.18;10.32;;;;;;;7.83;100.00;103115.25;5169256;28;20032;-66
2022/11/12 10:02:18;;;;;;;13.73;12.55;;;;;;;7.93;100.00;103116.69;5185459;28;20026;-66
2022/11/12 10:04:54;;;;;;;11.07;10.32;;;;;;;8.07;100.00;103121.25;5184551;28;20112;-66
2022/11/12 10:07:43;;;;;;;12.20;11.18;;;;;;;8.18;100.00;103119.13;5184816;28;20017;-67
2022/11/12 10:10:17;;;;;;;11.57;10.57;;;;;;;8.32;100.00;103121.00;5185209;28;20032;-67
2022/11/12 10:13:19;;;;;;;12.52;11.52;;;;;;;8.46;100.00;103115.63;5185228;28;20536;-67
2022/11/12 10:19:08;;;;;;;16.63;11.30;;;;;;;8.75;100.00;103108.53;5186772;28;20091;-68
2022/11/12 10:21:54;;;;;;;9.43;8.65;;;;;;;8.90;100.00;103111.19;5184758;28;20552;-67
2022/11/12 10:24:32;;;;;;;11.50;10.63;;;;;;;9.01;100.00;103108.00;5167683;28;20029;-67
2022/11/12 10:27:37;;;;;;;14.35;10.98;;;;;;;9.10;100.00;103104.16;5168885;28;20029;-67
2022/11/12 10:30:20;;;;;;;10.88;8.55;;;;;;;9.22;100.00;103099.94;5168369;28;20033;-68
2022/11/12 10:32:51;;;;;;;11.88;10.88;;;;;;;9.37;100.00;103100.69;5169148;28;20055;-67
2022/11/12 10:35:22;;;;;;;11.55;10.50;;;;;;;9.32;100.00;103076.16;5168041;28;20036;-66
2022/11/12 10:37:59;;;;;;;10.43;9.55;;;;;;;9.62;100.00;103097.59;5168214;28;20097;-67
2022/11/12 10:40:36;;;;;;;9.63;8.95;;;;;;;9.74;100.00;103085.25;5201060;28;20061;-66
2022/11/12 10:43:15;;;;;;;11.75;10.90;;;;;;;9.89;100.00;103094.06;5185881;28;20389;-67
2022/11/12 10:45:48;;;;;;;11.05;9.18;;;;;;;9.96;100.00;103081.44;5185574;28;20038;-67
2022/11/12 10:48:30;;;;;;;10.07;9.15;;;;;;;10.06;100.00;103071.16;5168465;28;20037;-67
2022/11/12 10:51:02;;;;;;;7.75;7.13;;;;;;;10.09;100.00;103064.53;5167899;28;20030;-67
2022/11/12 10:53:36;;;;;;;9.60;8.93;;;;;;;10.31;100.00;103070.69;5167569;28;20067;-67
2022/11/12 10:56:29;;;;;;;10.25;9.55;;;;;;;10.44;100.00;103062.63;5200809;28;20045;-67
2022/11/12 10:59:19;;;;;;;9.00;8.50;;;;;;;10.52;100.00;103057.06;5167520;28;20025;-68
2022/11/12 11:01:56;;;;;;;8.32;7.57;;;;;;;10.68;100.00;103053.97;5168218;28;20026;-68
2022/11/12 11:04:29;;;;;;;8.15;7.43;;;;;;;10.80;100.00;103044.25;5167734;28;20036;-68
2022/11/12 11:07:22;;;;;;;6.60;6.10;;;;;;;10.93;100.00;103053.44;5168238;28;20433;-68
2022/11/12 11:09:57;;;;;;;8.38;7.70;;;;;;;10.99;100.00;103055.31;5184446;28;20026;-68
2022/11/12 11:12:33;;;;;;;9.05;8.20;;;;;;;11.13;100.00;103054.31;5185968;28;20018;-68
2022/11/12 11:15:18;;;;;;;7.70;7.20;;;;;;;11.24;100.00;103045.59;5168042;28;20025;-70
2022/11/12 11:17:48;;;;;;;8.05;7.30;;;;;;;11.29;100.00;103045.78;5184731;28;20490;-68
2022/11/12 11:20:24;;;;;;;8.65;7.95;;;;;;;11.43;100.00;103044.75;5201193;28;20080;-68
2022/11/12 11:22:58;;;;;;;7.90;7.20;;;;;;;11.49;100.00;103040.38;5168219;28;20113;-67
2022/11/12 11:25:34;;;;;;;8.98;8.25;;;;;;;11.57;100.00;103023.09;5185109;28;20033;-70
2022/11/12 11:28:22;;;;;;;8.30;7.75;;;;;;;11.64;100.00;103029.34;5185322;28;20065;-69
2022/11/12 11:31:04;;;;;;;6.30;5.82;;;;;;;11.70;100.00;103009.56;5167488;28;20029;-69
2022/11/12 11:33:49;;;;;;;7.20;6.57;;;;;;;11.73;100.00;103012.66;5167276;28;20505;-70
2022/11/12 11:36:36;;;;;;;6.50;6.10;;;;;;;11.86;100.00;103011.81;5167305;28;20150;-70
2022/11/12 11:39:29;;;;;;;6.80;6.40;;;;;;;11.96;100.00;103014.09;5183937;28;20105;-69
2022/11/12 11:42:14;;;;;;;7.43;7.03;;;;;;;12.10;100.00;103007.63;5183786;28;20084;-68
2022/11/12 11:45:14;;;;;;;6.13;5.68;;;;;;;12.18;100.00;103000.06;5184562;28;20030;-69
2022/11/12 11:48:05;;;;;;;6.35;5.75;;;;;;;12.34;100.00;103004.19;5167601;28;20022;-70
2022/11/12 11:50:58;;;;;;;6.80;6.20;;;;;;;12.35;100.00;102999.59;5167252;28;20024;-68
2022/11/12 11:53:57;;;;;;;6.85;6.25;;;;;;;12.48;100.00;103000.34;5167043;28;20108;-69
2022/11/12 11:56:33;;;;;;;5.70;5.30;;;;;;;12.54;100.00;103006.78;5167051;28;20546;-69
2022/11/12 11:59:22;;;;;;;6.03;5.47;;;;;;;12.42;100.00;102986.81;5184970;28;20022;-70
2022/11/12 12:02:05;;;;;;;6.13;5.72;;;;;;;12.54;100.00;103006.78;5167454;28;20032;-70
2022/11/12 12:04:50;;;;;;;6.78;6.38;;;;;;;12.56;100.00;103004.69;5183480;28;20026;-69
2022/11/12 12:07:45;;;;;;;5.70;5.28;;;;;;;12.61;100.00;102998.63;5185000;28;20502;-69